Time;durP1;ratioP1;P1;durP2;ratioP2;P2;SDS_P1;SDS_P2;PMS_P1;PMS_P2;Temp;Humidity;BMP_temperature;BMP_pressure;BME280_temperature;BME280_humidity;BME280_pressure;Samples;Min_cycle;Max_cycle;Signal;HPM_P1;HPM_P2
2023/10/20 00:01:01;;;;;;;0.20;0.20;;;9.20;99.90;;;;;;5053568;28;20044;-85
2023/10/20 00:03:27;;;;;;;0.13;0.13;;;8.00;99.90;;;;;;5045826;28;20059;-86
2023/10/20 00:05:53;;;;;;;0.13;0.13;;;7.90;99.90;;;;;;5042678;28;20043;-86
2023/10/20 00:08:19;;;;;;;0.20;0.20;;;8.60;99.90;;;;;;5051398;28;20090;-83
2023/10/20 00:10:45;;;;;;;0.20;0.20;;;8.10;99.90;;;;;;5067980;28;20052;-86
2023/10/20 00:13:11;;;;;;;0.10;0.10;;;8.30;99.90;;;;;;5064410;28;20040;-87
2023/10/20 00:15:37;;;;;;;0.25;0.25;;;7.90;99.90;;;;;;5061771;28;20044;-87
2023/10/20 00:18:03;;;;;;;0.20;0.20;;;7.90;99.90;;;;;;5072828;28;20484;-86
2023/10/20 00:20:29;;;;;;;0.10;0.10;;;7.90;99.90;;;;;;5047676;28;20045;-86
2023/10/20 00:22:55;;;;;;;0.73;0.30;;;8.00;99.90;;;;;;5046101;28;20040;-86
2023/10/20 00:25:21;;;;;;;0.10;0.10;;;8.40;99.90;;;;;;5037586;28;20067;-86
2023/10/20 00:27:47;;;;;;;0.10;0.10;;;8.00;99.90;;;;;;5052006;28;20052;-86
2023/10/20 00:30:13;;;;;;;0.20;0.20;;;9.00;99.90;;;;;;5051397;28;20048;-86
2023/10/20 00:32:43;;;;;;;0.15;0.15;;;7.90;99.90;;;;;;5054925;28;20033;-86
2023/10/20 00:35:09;;;;;;;0.10;0.10;;;7.90;99.90;;;;;;5052106;28;20051;-84
2023/10/20 00:37:36;;;;;;;0.10;0.10;;;8.20;99.90;;;;;;5052833;28;20124;-86
2023/10/20 00:40:09;;;;;;;0.10;0.10;;;7.90;99.90;;;;;;5053253;28;20549;-87
2023/10/20 00:42:35;;;;;;;0.20;0.20;;;7.90;99.90;;;;;;5049521;28;20048;-85
2023/10/20 00:45:01;;;;;;;0.10;0.10;;;9.00;99.90;;;;;;5036435;28;20136;-86
2023/10/20 00:47:27;;;;;;;0.10;0.10;;;8.00;99.90;;;;;;5048060;28;20247;-86
2023/10/20 00:49:53;;;;;;;0.20;0.20;;;8.40;99.90;;;;;;5041682;28;20514;-86
2023/10/20 00:52:21;;;;;;;0.20;0.20;;;7.90;99.90;;;;;;5049665;28;20430;-86
2023/10/20 00:54:47;;;;;;;0.10;0.10;;;8.30;99.90;;;;;;5042279;28;20391;-86
2023/10/20 00:57:16;;;;;;;0.10;0.10;;;8.50;99.90;;;;;;5049792;28;20052;-85
2023/10/20 00:59:42;;;;;;;0.10;0.10;;;8.00;99.90;;;;;;5050896;28;20555;-86
2023/10/20 01:02:08;;;;;;;0.20;0.20;;;7.90;99.90;;;;;;5048352;28;20129;-87
2023/10/20 01:04:34;;;;;;;0.20;0.20;;;8.40;99.90;;;;;;5037116;28;20072;-87
2023/10/20 01:07:00;;;;;;;0.20;0.20;;;7.90;99.90;;;;;;5047934;28;20044;-84
2023/10/20 01:09:26;;;;;;;0.20;0.20;;;8.00;99.90;;;;;;5054162;28;20481;-86
2023/10/20 01:11:53;;;;;;;0.10;0.10;;;8.00;99.90;;;;;;5044634;28;20045;-88
2023/10/20 01:14:19;;;;;;;0.20;0.20;;;9.30;99.90;;;;;;5042814;28;20040;-88
2023/10/20 01:16:45;;;;;;;0.10;0.10;;;8.00;99.90;;;;;;5048374;28;20049;-87
2023/10/20 01:19:11;;;;;;;0.10;0.10;;;8.80;99.90;;;;;;5038671;28;20052;-87
2023/10/20 01:21:37;;;;;;;0.10;0.10;;;8.00;99.90;;;;;;5048025;28;20591;-87
2023/10/20 01:24:04;;;;;;;0.20;0.20;;;8.00;99.90;;;;;;5044955;28;20064;-86
2023/10/20 01:26:31;;;;;;;0.20;0.20;;;8.00;99.90;;;;;;5046483;28;20087;-86
2023/10/20 01:28:56;;;;;;;0.20;0.20;;;7.90;99.90;;;;;;5040057;28;20041;-83
2023/10/20 01:31:25;;;;;;;0.10;0.10;;;8.00;99.90;;;;;;5051038;28;20036;-86
2023/10/20 01:33:51;;;;;;;0.20;0.20;;;8.70;99.90;;;;;;5048074;28;20600;-85
2023/10/20 01:36:17;;;;;;;0.10;0.10;;;7.90;99.90;;;;;;5048769;28;20049;-86
2023/10/20 01:38:42;;;;;;;0.20;0.20;;;9.00;99.90;;;;;;5034757;28;20037;-85
2023/10/20 01:41:08;;;;;;;0.20;0.20;;;7.90;99.90;;;;;;5044791;28;20063;-86
2023/10/20 01:43:34;;;;;;;0.10;0.10;;;7.90;99.90;;;;;;5045830;28;20496;-85
2023/10/20 01:46:01;;;;;;;0.10;0.10;;;9.30;99.90;;;;;;5045268;28;20045;-87
2023/10/20 01:48:27;;;;;;;0.10;0.10;;;8.20;99.90;;;;;;5052628;28;20456;-88
2023/10/20 01:50:52;;;;;;;0.10;0.10;;;8.20;99.90;;;;;;5046787;28;20084;-86
2023/10/20 01:53:18;;;;;;;0.20;0.20;;;8.00;99.90;;;;;;5046427;28;20041;-87
2023/10/20 01:55:49;;;;;;;0.20;0.20;;;8.70;99.90;;;;;;5044231;28;20052;-87
2023/10/20 01:58:18;;;;;;;0.20;0.20;;;8.60;99.90;;;;;;5043418;28;20044;-87
2023/10/20 02:00:44;;;;;;;0.20;0.20;;;8.40;99.90;;;;;;5049255;28;20089;-86
2023/10/20 02:03:10;;;;;;;0.10;0.10;;;8.80;99.90;;;;;;5048231;28;20060;-85
2023/10/20 02:05:36;;;;;;;0.20;0.20;;;9.30;99.90;;;;;;5032717;28;20104;-85
2023/10/20 02:08:02;;;;;;;0.17;0.17;;;8.00;99.90;;;;;;5049709;28;20091;-86
2023/10/20 02:10:28;;;;;;;0.20;0.20;;;8.00;99.90;;;;;;5032987;28;20396;-85
2023/10/20 02:12:53;;;;;;;0.20;0.20;;;8.00;99.90;;;;;;5032759;28;20045;-86
2023/10/20 02:15:19;;;;;;;0.17;0.17;;;8.30;99.90;;;;;;5035063;28;20059;-85
2023/10/20 02:17:45;;;;;;;0.20;0.20;;;8.00;99.90;;;;;;5049075;28;20033;-86
2023/10/20 02:20:11;;;;;;;0.20;0.20;;;9.00;99.90;;;;;;5040856;28;20127;-88
2023/10/20 02:22:37;;;;;;;0.10;0.10;;;8.00;99.90;;;;;;5049660;28;20043;-87
2023/10/20 02:25:04;;;;;;;0.10;0.10;;;8.30;99.90;;;;;;5039935;28;20412;-87
2023/10/20 02:27:29;;;;;;;0.20;0.20;;;8.00;99.90;;;;;;5058417;28;20180;-87
2023/10/20 02:29:56;;;;;;;0.10;0.10;;;9.30;99.90;;;;;;5059314;28;20067;-86
2023/10/20 02:32:21;;;;;;;0.20;0.20;;;7.90;99.90;;;;;;5042537;28;20048;-86
2023/10/20 02:34:47;;;;;;;0.10;0.10;;;8.00;99.90;;;;;;5035753;28;20047;-87
2023/10/20 02:37:14;;;;;;;0.20;0.20;;;8.70;99.90;;;;;;5047062;28;20079;-87
2023/10/20 02:39:40;;;;;;;0.10;0.10;;;8.00;99.90;;;;;;5041537;28;20128;-86
2023/10/20 02:42:06;;;;;;;0.10;0.10;;;8.00;99.90;;;;;;5048719;28;20127;-88
2023/10/20 02:44:32;;;;;;;0.20;0.20;;;8.40;99.90;;;;;;5051279;28;20045;-87
2023/10/20 02:46:57;;;;;;;0.20;0.20;;;8.50;99.90;;;;;;5049374;28;20085;-86
2023/10/20 02:49:24;;;;;;;0.10;0.10;;;7.90;99.90;;;;;;5042743;28;20040;-87
2023/10/20 02:51:49;;;;;;;0.20;0.20;;;7.90;99.90;;;;;;5052735;28;20777;-86
2023/10/20 02:54:15;;;;;;;0.10;0.10;;;7.90;99.90;;;;;;5047958;28;20040;-87
2023/10/20 02:56:41;;;;;;;0.15;0.15;;;8.00;99.90;;;;;;5046616;28;20487;-86
2023/10/20 02:59:06;;;;;;;0.20;0.20;;;8.30;99.90;;;;;;5033188;28;20045;-88
2023/10/20 03:01:32;;;;;;;0.10;0.10;;;7.90;99.90;;;;;;5052027;28;20079;-88
2023/10/20 03:03:58;;;;;;;0.10;0.10;;;8.80;99.90;;;;;;5060453;28;20041;-87
2023/10/20 03:06:24;;;;;;;0.15;0.15;;;7.90;99.90;;;;;;5056782;28;20032;-86
2023/10/20 03:08:50;;;;;;;0.15;0.15;;;8.00;99.90;;;;;;5052136;28;20048;-86
2023/10/20 03:11:16;;;;;;;0.20;0.20;;;7.90;99.90;;;;;;5053876;28;20439;-86
2023/10/20 03:13:41;;;;;;;0.20;0.20;;;7.90;99.90;;;;;;5052798;28;20048;-85
2023/10/20 03:16:07;;;;;;;0.20;0.20;;;7.90;99.90;;;;;;5051065;28;20040;-87
2023/10/20 03:18:33;;;;;;;0.20;0.20;;;7.90;99.90;;;;;;5052210;28;20730;-88
2023/10/20 03:21:02;;;;;;;0.17;0.17;;;7.90;99.90;;;;;;5045814;28;20070;-86
2023/10/20 03:23:29;;;;;;;0.13;0.13;;;7.90;99.90;;;;;;5048241;28;20122;-85
2023/10/20 03:25:55;;;;;;;0.10;0.10;;;7.90;99.90;;;;;;5048236;28;20042;-87
2023/10/20 03:28:21;;;;;;;0.20;0.20;;;7.90;99.90;;;;;;5048787;28;20045;-87
2023/10/20 03:30:47;;;;;;;0.10;0.10;;;9.30;99.90;;;;;;5056057;28;20051;-87
2023/10/20 03:33:13;;;;;;;0.10;0.10;;;7.80;99.90;;;;;;5052254;28;20052;-86
2023/10/20 03:35:40;;;;;;;0.10;0.10;;;7.90;99.90;;;;;;5043447;28;20040;-86
2023/10/20 03:38:06;;;;;;;0.20;0.20;;;8.50;99.90;;;;;;5045655;28;20131;-87
2023/10/20 03:40:40;;;;;;;0.17;0.17;;;7.90;99.90;;;;;;5041726;28;20223;-87
2023/10/20 03:43:08;;;;;;;0.15;0.15;;;8.80;99.90;;;;;;5061283;28;20040;-87
2023/10/20 03:45:49;;;;;;;0.20;0.20;;;7.80;99.90;;;;;;5072523;28;20052;-87
2023/10/20 03:48:15;;;;;;;0.10;0.10;;;7.80;99.90;;;;;;5073013;28;20396;-86
2023/10/20 03:50:44;;;;;;;0.13;0.13;;;8.80;99.90;;;;;;5053492;28;20044;-88
2023/10/20 03:53:18;;;;;;;0.20;0.20;;;7.80;99.90;;;;;;5055312;28;20049;-87
2023/10/20 03:55:44;;;;;;;0.10;0.10;;;7.80;99.90;;;;;;5049985;28;20041;-87
2023/10/20 03:58:11;;;;;;;0.10;0.10;;;7.80;99.90;;;;;;5036282;28;20107;-87
2023/10/20 04:00:41;;;;;;;0.10;0.10;;;7.80;99.90;;;;;;5035217;28;20041;-88
2023/10/20 04:03:08;;;;;;;0.10;0.10;;;7.80;99.90;;;;;;5051013;28;20040;-86
2023/10/20 04:05:34;;;;;;;0.20;0.20;;;7.80;99.90;;;;;;5044210;28;20402;-87
2023/10/20 04:07:59;;;;;;;0.13;0.13;;;7.80;99.90;;;;;;5054068;28;20137;-86
2023/10/20 04:10:25;;;;;;;0.20;0.20;;;7.80;99.90;;;;;;5053913;28;20029;-87
2023/10/20 04:12:52;;;;;;;0.20;0.20;;;7.80;99.90;;;;;;5053851;28;20048;-88
2023/10/20 04:15:25;;;;;;;0.20;0.20;;;7.80;99.90;;;;;;5053234;28;20036;-87
2023/10/20 04:17:54;;;;;;;0.20;0.20;;;7.80;99.90;;;;;;5047507;28;20047;-85
2023/10/20 04:20:21;;;;;;;0.20;0.20;;;9.00;99.90;;;;;;5053790;28;20063;-86
2023/10/20 04:22:50;;;;;;;0.20;0.20;;;8.30;99.90;;;;;;5055625;28;20049;-86
2023/10/20 04:25:21;;;;;;;0.17;0.17;;;7.80;99.90;;;;;;5048258;28;20132;-88
2023/10/20 04:27:51;;;;;;;0.10;0.10;;;7.70;99.90;;;;;;5060079;28;20399;-87
2023/10/20 04:58:13;;;;;;;;;;;7.80;99.90;;;;;;5057349;28;20051;-86
2023/10/20 05:07:58;;;;;;;0.20;0.20;;;7.80;99.90;;;;;;5052796;28;20087;-87
2023/10/20 05:10:24;;;;;;;0.20;0.20;;;7.80;99.90;;;;;;5048163;28;20053;-86
2023/10/20 05:12:51;;;;;;;0.20;0.20;;;7.80;99.90;;;;;;5052732;28;20052;-87
2023/10/20 05:15:17;;;;;;;0.20;0.20;;;8.90;99.90;;;;;;5049597;28;20044;-87
2023/10/20 05:17:43;;;;;;;0.20;0.20;;;7.90;99.90;;;;;;5053160;28;20067;-85
2023/10/20 05:20:19;;;;;;;0.20;0.20;;;7.80;99.90;;;;;;5054648;28;20068;-88
2023/10/20 05:22:46;;;;;;;0.20;0.20;;;7.70;99.90;;;;;;5049359;28;20048;-86
2023/10/20 05:25:13;;;;;;;0.20;0.20;;;7.80;99.90;;;;;;5046645;28;20057;-86
2023/10/20 05:27:39;;;;;;;0.20;0.20;;;7.80;99.90;;;;;;5042197;28;20048;-87
2023/10/20 05:30:05;;;;;;;0.20;0.20;;;7.80;99.90;;;;;;5047946;28;20044;-87
2023/10/20 05:32:31;;;;;;;0.10;0.10;;;7.80;99.90;;;;;;5039232;28;20413;-84
2023/10/20 05:34:59;;;;;;;0.20;0.20;;;6.50;99.90;;;;;;5048219;28;20047;-86
2023/10/20 05:37:25;;;;;;;0.13;0.13;;;7.80;99.90;;;;;;5040462;28;20557;-87
2023/10/20 05:39:51;;;;;;;0.20;0.20;;;7.90;99.90;;;;;;5032832;28;20179;-88
2023/10/20 05:42:17;;;;;;;0.20;0.20;;;7.80;99.90;;;;;;5044719;28;20038;-86
2023/10/20 05:47:28;;;;;;;0.20;0.20;;;7.80;99.90;;;;;;5040221;28;20040;-87
2023/10/20 05:50:00;;;;;;;0.10;0.10;;;7.80;99.90;;;;;;5042598;28;20079;-85
2023/10/20 05:52:26;;;;;;;0.10;0.10;;;7.80;99.90;;;;;;5045144;28;20041;-85
2023/10/20 05:54:54;;;;;;;0.20;0.20;;;7.80;99.90;;;;;;5039053;28;20037;-84
2023/10/20 05:57:20;;;;;;;0.20;0.20;;;7.80;99.90;;;;;;5037786;28;20435;-87
2023/10/20 05:59:46;;;;;;;0.20;0.20;;;7.80;99.90;;;;;;5046135;28;20044;-87
2023/10/20 06:02:12;;;;;;;0.10;0.10;;;8.30;99.90;;;;;;5043853;28;20476;-86
2023/10/20 06:04:37;;;;;;;0.20;0.20;;;7.80;99.90;;;;;;5041887;28;20063;-88
2023/10/20 06:07:07;;;;;;;0.20;0.20;;;7.80;99.90;;;;;;5042884;28;20045;-88
2023/10/20 06:09:33;;;;;;;0.10;0.10;;;7.80;99.90;;;;;;5036895;28;20388;-87
2023/10/20 06:11:59;;;;;;;0.10;0.10;;;7.80;99.90;;;;;;5043545;28;20052;-87
2023/10/20 06:14:26;;;;;;;0.10;0.10;;;7.80;99.90;;;;;;5053246;28;20442;-88
2023/10/20 06:16:54;;;;;;;0.20;0.20;;;7.80;99.90;;;;;;5047534;28;20401;-87
2023/10/20 06:19:21;;;;;;;0.20;0.20;;;7.80;99.90;;;;;;5031404;28;20138;-85
2023/10/20 06:21:46;;;;;;;0.20;0.20;;;7.80;99.90;;;;;;5046318;28;20056;-87
2023/10/20 06:24:14;;;;;;;0.20;0.20;;;7.80;99.90;;;;;;5038198;28;20049;-86
2023/10/20 06:26:43;;;;;;;0.20;0.20;;;7.80;99.90;;;;;;5080341;28;20071;-85
2023/10/20 06:31:54;;;;;;;0.10;0.10;;;7.80;99.90;;;;;;5037213;28;20084;-86
2023/10/20 06:34:23;;;;;;;0.20;0.20;;;7.70;99.90;;;;;;5068673;28;20047;-84
2023/10/20 06:36:53;;;;;;;0.20;0.20;;;7.80;99.90;;;;;;5048389;28;20135;-88
2023/10/20 06:39:20;;;;;;;0.13;0.13;;;7.80;99.90;;;;;;5042576;28;20594;-86
2023/10/20 06:41:47;;;;;;;0.10;0.10;;;7.80;99.90;;;;;;5045186;28;20045;-86
2023/10/20 06:44:13;;;;;;;0.20;0.20;;;7.90;99.90;;;;;;5047906;28;20059;-85
2023/10/20 06:46:38;;;;;;;0.10;0.10;;;7.70;99.90;;;;;;5045146;28;20072;-86
2023/10/20 06:49:05;;;;;;;0.20;0.20;;;7.70;99.90;;;;;;5060427;28;20472;-86
2023/10/20 06:51:31;;;;;;;0.20;0.20;;;7.80;99.90;;;;;;5059625;28;20070;-87
2023/10/20 06:53:56;;;;;;;0.20;0.20;;;7.70;99.90;;;;;;5050436;28;20048;-83
2023/10/20 06:56:22;;;;;;;0.20;0.20;;;7.70;99.90;;;;;;5047918;28;20123;-84
2023/10/20 06:58:48;;;;;;;0.20;0.20;;;7.80;99.90;;;;;;5041671;28;20047;-84
2023/10/20 07:01:13;;;;;;;0.20;0.20;;;7.70;99.90;;;;;;5050159;28;20094;-86
2023/10/20 07:03:39;;;;;;;0.20;0.20;;;7.70;99.90;;;;;;5049399;28;20212;-84
2023/10/20 07:06:09;;;;;;;0.20;0.20;;;7.70;99.90;;;;;;5050766;28;20037;-85
2023/10/20 07:08:35;;;;;;;0.10;0.10;;;7.70;99.90;;;;;;5047038;28;20083;-84
2023/10/20 07:11:02;;;;;;;0.10;0.10;;;7.70;99.90;;;;;;5049388;28;20040;-86
2023/10/20 07:13:28;;;;;;;0.10;0.10;;;8.10;99.90;;;;;;5047648;28;20060;-87
2023/10/20 07:15:56;;;;;;;0.10;0.10;;;7.70;99.90;;;;;;5049855;28;20123;-86
2023/10/20 07:18:22;;;;;;;0.20;0.20;;;7.60;99.90;;;;;;5046643;28;20094;-86
2023/10/20 07:20:48;;;;;;;0.20;0.20;;;7.60;99.90;;;;;;5043553;28;20400;-87
2023/10/20 07:23:13;;;;;;;0.10;0.10;;;8.30;99.90;;;;;;5039382;28;20066;-84
2023/10/20 07:25:39;;;;;;;0.20;0.20;;;7.90;99.90;;;;;;5041853;28;20102;-87
2023/10/20 07:28:05;;;;;;;0.10;0.10;;;7.60;99.90;;;;;;5061341;28;20132;-84
2023/10/20 07:30:31;;;;;;;0.20;0.20;;;7.60;99.90;;;;;;5043389;28;20044;-86
2023/10/20 07:32:57;;;;;;;0.20;0.20;;;8.70;99.90;;;;;;5049846;28;20063;-87
2023/10/20 07:35:23;;;;;;;0.20;0.20;;;7.60;99.90;;;;;;5048175;28;20090;-85
2023/10/20 07:37:50;;;;;;;0.10;0.10;;;8.80;99.90;;;;;;5054023;28;20040;-86
2023/10/20 07:40:18;;;;;;;0.20;0.20;;;7.60;99.90;;;;;;5051718;28;20456;-86
2023/10/20 07:42:45;;;;;;;0.20;0.20;;;7.60;99.90;;;;;;5047448;28;20080;-86
2023/10/20 07:45:11;;;;;;;0.10;0.10;;;7.90;99.90;;;;;;5048233;28;20055;-86
2023/10/20 07:47:37;;;;;;;0.20;0.20;;;7.60;99.90;;;;;;5052980;28;20037;-86
2023/10/20 07:50:05;;;;;;;0.20;0.20;;;7.50;99.90;;;;;;5051438;28;20045;-84
2023/10/20 07:52:31;;;;;;;0.10;0.10;;;7.50;99.90;;;;;;5056787;28;20048;-85
2023/10/20 07:54:57;;;;;;;0.13;0.13;;;7.50;99.90;;;;;;5055825;28;20041;-86
2023/10/20 07:57:24;;;;;;;0.20;0.20;;;7.50;99.90;;;;;;5056995;28;20183;-86
2023/10/20 07:59:50;;;;;;;0.20;0.20;;;8.10;99.90;;;;;;5048880;28;20052;-86
2023/10/20 08:02:17;;;;;;;0.10;0.10;;;7.50;99.90;;;;;;5055334;28;20376;-86
2023/10/20 08:04:42;;;;;;;0.20;0.20;;;7.50;99.90;;;;;;5039128;28;20041;-85
2023/10/20 08:07:11;;;;;;;0.20;0.20;;;7.50;99.90;;;;;;5050028;28;20137;-84
2023/10/20 08:09:37;;;;;;;0.20;0.20;;;7.50;99.90;;;;;;5041814;28;20059;-86
2023/10/20 08:12:04;;;;;;;0.20;0.20;;;7.50;99.90;;;;;;5042544;28;20124;-84
2023/10/20 08:14:30;;;;;;;0.10;0.10;;;7.40;99.90;;;;;;5041340;28;20037;-86
2023/10/20 08:16:56;;;;;;;0.10;0.10;;;7.40;99.90;;;;;;5055167;28;20060;-84
2023/10/20 08:19:22;;;;;;;0.20;0.20;;;7.50;99.90;;;;;;5063340;28;20045;-83
2023/10/20 08:21:48;;;;;;;0.20;0.20;;;7.40;99.90;;;;;;5031727;28;20558;-84
2023/10/20 08:24:14;;;;;;;0.20;0.20;;;7.40;99.90;;;;;;5050513;28;20430;-82
2023/10/20 08:26:40;;;;;;;0.20;0.20;;;7.60;99.90;;;;;;5052925;28;20472;-86
2023/10/20 08:29:12;;;;;;;0.10;0.10;;;7.40;99.90;;;;;;5050934;28;20049;-84
2023/10/20 08:31:39;;;;;;;0.20;0.20;;;7.40;99.90;;;;;;5046727;28;20090;-87
2023/10/20 08:34:05;;;;;;;0.10;0.10;;;8.50;99.90;;;;;;5050295;28;20699;-86
2023/10/20 08:36:31;;;;;;;0.20;0.20;;;7.60;99.90;;;;;;5053707;28;20115;-85
2023/10/20 08:39:01;;;;;;;0.20;0.20;;;7.40;99.90;;;;;;5050396;28;20055;-87
2023/10/20 08:41:27;;;;;;;0.13;0.13;;;7.40;99.90;;;;;;5046270;28;20505;-85
2023/10/20 08:43:55;;;;;;;0.20;0.20;;;7.40;99.90;;;;;;5051469;28;20032;-85
2023/10/20 08:46:23;;;;;;;0.20;0.20;;;7.40;99.90;;;;;;5037117;28;20090;-82
2023/10/20 08:48:49;;;;;;;0.20;0.20;;;7.40;99.90;;;;;;5048004;28;20052;-85
2023/10/20 08:51:17;;;;;;;0.20;0.20;;;7.40;99.90;;;;;;5040078;28;20041;-82
2023/10/20 08:53:43;;;;;;;0.20;0.20;;;7.40;99.90;;;;;;5050285;28;20110;-84
2023/10/20 08:56:11;;;;;;;0.20;0.20;;;7.30;99.90;;;;;;5043933;28;20041;-83
2023/10/20 08:58:38;;;;;;;0.20;0.20;;;7.30;99.90;;;;;;5045522;28;20657;-83
2023/10/20 09:01:05;;;;;;;0.20;0.20;;;7.30;99.90;;;;;;5044304;28;20041;-84
2023/10/20 09:03:39;;;;;;;0.10;0.10;;;7.30;99.90;;;;;;5048815;28;20140;-81
2023/10/20 09:06:06;;;;;;;0.13;0.13;;;7.30;99.90;;;;;;5069195;28;20126;-80
2023/10/20 09:08:33;;;;;;;0.20;0.20;;;7.40;99.90;;;;;;5049735;28;20033;-80
2023/10/20 09:10:59;;;;;;;0.20;0.20;;;7.30;99.90;;;;;;5053499;28;20109;-81
2023/10/20 09:13:36;;;;;;;0.20;0.20;;;7.30;99.90;;;;;;5047831;28;20037;-83
2023/10/20 09:16:03;;;;;;;0.20;0.20;;;7.20;99.90;;;;;;5043514;28;20060;-82
2023/10/20 09:18:31;;;;;;;0.20;0.20;;;7.30;99.90;;;;;;5049517;28;20051;-82
2023/10/20 09:21:06;;;;;;;0.20;0.20;;;8.10;99.90;;;;;;5048224;28;20059;-82
2023/10/20 09:23:32;;;;;;;0.20;0.20;;;7.20;99.90;;;;;;5050717;28;21362;-83
2023/10/20 09:25:58;;;;;;;0.10;0.10;;;7.20;99.90;;;;;;5048054;28;20083;-77
2023/10/20 09:28:27;;;;;;;0.20;0.20;;;7.20;99.90;;;;;;5051183;28;20083;-83
2023/10/20 09:30:54;;;;;;;0.20;0.20;;;7.10;99.90;;;;;;5047045;28;20040;-84
2023/10/20 09:33:21;;;;;;;0.20;0.20;;;7.20;99.90;;;;;;5049867;28;20117;-82
2023/10/20 09:35:46;;;;;;;0.20;0.20;;;7.10;99.90;;;;;;5046011;28;20090;-85
2023/10/20 09:38:13;;;;;;;0.20;0.20;;;7.20;99.90;;;;;;5048079;28;20052;-83
2023/10/20 09:40:41;;;;;;;0.10;0.10;;;7.20;99.90;;;;;;5029941;28;20069;-81
2023/10/20 09:43:30;;;;;;;0.10;0.10;;;7.70;99.90;;;;;;5048990;28;20036;-76
2023/10/20 09:46:26;;;;;;;0.13;0.13;;;7.10;99.90;;;;;;5051314;28;20404;-75
2023/10/20 09:48:55;;;;;;;0.20;0.20;;;7.20;99.90;;;;;;5028582;28;20056;-76
2023/10/20 09:51:21;;;;;;;0.15;0.15;;;7.20;99.90;;;;;;5043693;28;20448;-76
2023/10/20 09:53:48;;;;;;;0.10;0.10;;;7.10;99.90;;;;;;5065640;28;20040;-77
2023/10/20 09:56:15;;;;;;;0.20;0.20;;;7.10;99.90;;;;;;5046971;28;20059;-76
2023/10/20 09:58:43;;;;;;;0.17;0.17;;;7.10;99.90;;;;;;5046820;28;20045;-78
2023/10/20 10:01:13;;;;;;;0.20;0.20;;;8.10;99.90;;;;;;5050205;28;20291;-76
2023/10/20 10:03:40;;;;;;;0.20;0.20;;;7.10;99.90;;;;;;5047246;28;20491;-77
2023/10/20 10:06:25;;;;;;;0.20;0.20;;;8.00;99.90;;;;;;5052658;28;20045;-76
2023/10/20 10:08:53;;;;;;;0.10;0.10;;;7.10;99.90;;;;;;5068513;28;20036;-76
2023/10/20 10:11:29;;;;;;;0.10;0.10;;;7.20;99.90;;;;;;5043619;28;20048;-75
2023/10/20 10:14:01;;;;;;;0.20;0.20;;;7.10;99.90;;;;;;5048588;28;20051;-76
2023/10/20 10:16:26;;;;;;;;;;;7.10;99.90;;;;;;5045744;28;20051;-75
2023/10/20 10:18:54;;;;;;;0.20;0.20;;;7.00;99.90;;;;;;5049068;28;19925;-75
2023/10/20 10:21:30;;;;;;;0.20;0.20;;;7.00;99.90;;;;;;5042704;28;20037;-76
2023/10/20 10:24:16;;;;;;;0.20;0.20;;;7.00;99.90;;;;;;5049032;28;20097;-75
2023/10/20 10:26:48;;;;;;;0.10;0.10;;;7.10;99.90;;;;;;5043310;28;20040;-74
2023/10/20 10:29:14;;;;;;;0.20;0.20;;;7.00;99.90;;;;;;5043054;28;20047;-76
2023/10/20 10:31:40;;;;;;;0.20;0.20;;;7.10;99.90;;;;;;5042518;28;20044;-74
2023/10/20 10:34:06;;;;;;;0.20;0.20;;;7.10;99.90;;;;;;5045600;28;20416;-75
2023/10/20 10:36:46;;;;;;;0.20;0.20;;;7.00;99.90;;;;;;5044604;28;20036;-74
2023/10/20 10:39:27;;;;;;;0.20;0.20;;;7.00;99.90;;;;;;5045628;28;20044;-74
2023/10/20 10:41:53;;;;;;;0.10;0.10;;;7.00;99.90;;;;;;5042469;28;20037;-77
2023/10/20 10:44:23;;;;;;;0.20;0.20;;;7.00;99.90;;;;;;5038397;28;20506;-74
2023/10/20 10:46:49;;;;;;;0.10;0.10;;;7.00;99.90;;;;;;5044039;28;20041;-76
2023/10/20 10:49:14;;;;;;;0.20;0.20;;;6.90;99.90;;;;;;5042865;28;20063;-76
2023/10/20 10:51:47;;;;;;;0.10;0.10;;;7.00;99.90;;;;;;5047974;28;20040;-76
2023/10/20 10:54:13;;;;;;;0.10;0.10;;;6.90;99.90;;;;;;5045505;28;20061;-74
2023/10/20 10:56:42;;;;;;;0.20;0.20;;;6.90;99.90;;;;;;5045959;28;20124;-75
2023/10/20 10:59:10;;;;;;;0.20;0.20;;;6.90;99.90;;;;;;5043500;28;20540;-73
2023/10/20 11:01:38;;;;;;;0.20;0.20;;;6.90;99.90;;;;;;5048387;28;21431;-75
2023/10/20 11:04:06;;;;;;;0.10;0.10;;;6.90;99.90;;;;;;5042568;28;20193;-75
2023/10/20 11:06:39;;;;;;;0.20;0.20;;;6.90;99.90;;;;;;5042711;28;20036;-76
2023/10/20 11:09:13;;;;;;;0.10;0.10;;;6.90;99.90;;;;;;5036755;28;20053;-76
2023/10/20 11:11:51;;;;;;;0.10;0.10;;;7.00;99.90;;;;;;5033896;28;20412;-76
2023/10/20 11:14:22;;;;;;;0.20;0.20;;;6.90;99.90;;;;;;5049975;28;20098;-75
2023/10/20 11:16:47;;;;;;;0.10;0.10;;;6.90;99.90;;;;;;5037016;28;20048;-76
2023/10/20 11:19:14;;;;;;;0.20;0.20;;;6.90;99.90;;;;;;5043078;28;20045;-76
2023/10/20 11:21:48;;;;;;;0.10;0.10;;;6.90;99.90;;;;;;5041723;28;20551;-75
2023/10/20 11:24:50;;;;;;;0.20;0.20;;;6.90;99.90;;;;;;5039610;28;20608;-75
2023/10/20 11:27:16;;;;;;;0.20;0.20;;;6.90;99.90;;;;;;5025572;28;21554;-75
2023/10/20 11:29:42;;;;;;;0.20;0.20;;;6.90;99.90;;;;;;5048375;28;20037;-77
2023/10/20 11:32:13;;;;;;;0.20;0.20;;;6.80;99.90;;;;;;5051350;28;20076;-77
2023/10/20 11:34:39;;;;;;;0.20;0.20;;;7.50;99.90;;;;;;5053266;28;20048;-76
2023/10/20 11:37:05;;;;;;;0.20;0.20;;;6.80;99.90;;;;;;5039553;28;20049;-76
2023/10/20 11:39:36;;;;;;;0.20;0.20;;;7.80;99.90;;;;;;5038574;28;21120;-76
2023/10/20 11:42:02;;;;;;;0.20;0.20;;;7.40;99.90;;;;;;5049932;28;20567;-75
2023/10/20 11:44:28;;;;;;;0.20;0.20;;;6.80;99.90;;;;;;5053313;28;20119;-85
2023/10/20 11:46:54;;;;;;;0.10;0.10;;;6.80;99.90;;;;;;5051760;28;20131;-83
2023/10/20 11:49:20;;;;;;;0.17;0.17;;;6.80;99.90;;;;;;5052914;28;20395;-84
2023/10/20 11:51:46;;;;;;;0.20;0.20;;;6.70;99.90;;;;;;5051979;28;20159;-85
2023/10/20 11:54:12;;;;;;;0.20;0.20;;;6.80;99.90;;;;;;5051802;28;20079;-84
2023/10/20 11:56:38;;;;;;;0.20;0.20;;;5.90;99.90;;;;;;5049132;28;20121;-87
2023/10/20 11:59:04;;;;;;;0.20;0.20;;;6.80;99.90;;;;;;5050160;28;20052;-86
2023/10/20 12:01:32;;;;;;;0.10;0.10;;;6.80;99.90;;;;;;5055084;28;20123;-82
2023/10/20 12:04:05;;;;;;;0.10;0.10;;;6.80;99.90;;;;;;5050124;28;20087;-82
2023/10/20 12:06:32;;;;;;;0.20;0.20;;;6.80;99.90;;;;;;5055043;28;20041;-83
2023/10/20 12:08:57;;;;;;;0.10;0.10;;;7.30;99.90;;;;;;5054346;28;20123;-83
2023/10/20 12:11:23;;;;;;;0.10;0.10;;;6.80;99.90;;;;;;5048555;28;20170;-78
2023/10/20 12:13:49;;;;;;;0.20;0.20;;;6.80;99.90;;;;;;5044523;28;20089;-79
2023/10/20 12:16:15;;;;;;;0.20;0.20;;;6.80;99.90;;;;;;5045312;28;20044;-79
2023/10/20 12:18:44;;;;;;;0.20;0.20;;;6.80;99.90;;;;;;5050309;28;20368;-78
2023/10/20 12:21:09;;;;;;;0.20;0.20;;;6.90;99.90;;;;;;5051500;28;20074;-79
2023/10/20 12:23:36;;;;;;;0.10;0.10;;;6.80;99.90;;;;;;5052574;28;20131;-80
2023/10/20 12:26:03;;;;;;;0.20;0.20;;;6.80;99.90;;;;;;5050900;28;20174;-79
2023/10/20 12:28:29;;;;;;;0.20;0.20;;;6.80;99.90;;;;;;5051586;28;20657;-81
2023/10/20 12:30:55;;;;;;;0.20;0.20;;;6.80;99.90;;;;;;5047897;28;20045;-81
2023/10/20 12:33:20;;;;;;;0.20;0.20;;;7.90;99.90;;;;;;5045238;28;20127;-84
2023/10/20 12:35:46;;;;;;;0.20;0.20;;;6.80;99.90;;;;;;5041489;28;20068;-81
2023/10/20 12:38:12;;;;;;;0.20;0.20;;;6.80;99.90;;;;;;5039548;28;20047;-78
2023/10/20 12:40:41;;;;;;;0.10;0.10;;;6.80;99.90;;;;;;5051904;28;20533;-82
2023/10/20 12:43:09;;;;;;;0.10;0.10;;;8.10;99.90;;;;;;5048812;28;20040;-83
2023/10/20 12:45:38;;;;;;;0.10;0.10;;;6.80;99.90;;;;;;5048358;28;20056;-83
2023/10/20 12:48:05;;;;;;;0.20;0.20;;;6.80;99.90;;;;;;5041034;28;20041;-83
2023/10/20 12:50:32;;;;;;;0.20;0.20;;;6.80;99.90;;;;;;5059971;28;20130;-83
2023/10/20 12:53:02;;;;;;;0.10;0.10;;;6.80;99.90;;;;;;5057869;28;20495;-82
2023/10/20 12:55:30;;;;;;;0.20;0.20;;;6.80;99.90;;;;;;5045042;28;20044;-84
2023/10/20 12:57:56;;;;;;;0.13;0.13;;;6.80;99.90;;;;;;5054801;28;20399;-83
2023/10/20 13:00:22;;;;;;;0.20;0.20;;;6.90;99.90;;;;;;5047158;28;20049;-83
2023/10/20 13:02:52;;;;;;;0.20;0.20;;;6.90;99.90;;;;;;5051277;28;20448;-84
2023/10/20 13:05:19;;;;;;;0.20;0.20;;;7.00;99.90;;;;;;5041139;28;20048;-85
2023/10/20 13:07:44;;;;;;;0.20;0.20;;;7.10;99.90;;;;;;5049410;28;20037;-83
2023/10/20 13:10:10;;;;;;;0.10;0.10;;;6.80;99.90;;;;;;5037648;28;20045;-85
2023/10/20 13:12:36;;;;;;;0.20;0.20;;;6.80;99.90;;;;;;5041291;28;20429;-84
2023/10/20 13:15:02;;;;;;;0.20;0.20;;;7.40;99.90;;;;;;5043479;28;20056;-85
2023/10/20 13:17:30;;;;;;;0.20;0.20;;;6.80;99.90;;;;;;5049380;28;20053;-84
2023/10/20 13:19:56;;;;;;;0.20;0.20;;;5.80;99.90;;;;;;5050999;28;20131;-84
2023/10/20 13:22:24;;;;;;;0.20;0.20;;;6.80;99.90;;;;;;5053071;28;20162;-83
2023/10/20 13:24:50;;;;;;;0.20;0.20;;;6.80;99.90;;;;;;5051305;28;20059;-87
2023/10/20 13:27:17;;;;;;;0.20;0.20;;;6.80;99.90;;;;;;5053454;28;20268;-82
2023/10/20 13:29:43;;;;;;;0.10;0.10;;;6.80;99.90;;;;;;5050170;28;20041;-85
2023/10/20 13:32:09;;;;;;;0.10;0.10;;;6.90;99.90;;;;;;5048972;28;20484;-85
2023/10/20 13:34:34;;;;;;;0.20;0.20;;;6.80;99.90;;;;;;5046115;28;20033;-84
2023/10/20 13:37:00;;;;;;;0.20;0.20;;;6.70;99.90;;;;;;5050937;28;20028;-83
2023/10/20 13:39:25;;;;;;;0.20;0.20;;;6.70;99.90;;;;;;5049204;28;20443;-83